Time;durP1;ratioP1;P1;durP2;ratioP2;P2;SDS_P1;SDS_P2;PMS_P1;PMS_P2;Temp;Humidity;BMP_temperature;BMP_pressure;BME280_temperature;BME280_humidity;BME280_pressure;Samples;Min_cycle;Max_cycle;Signal;HPM_P1;HPM_P2
2022/03/31 00:00:39;;;;;;;14.48;10.57;;;;;;;6.23;84.21;98841.72;5036277;28;20029;-74
2022/03/31 00:03:06;;;;;;;13.15;8.65;;;;;;;6.20;84.21;98849.91;5026260;28;20029;-74
2022/03/31 00:05:32;;;;;;;10.45;7.28;;;;;;;6.17;84.38;98845.81;5026732;28;20124;-74
2022/03/31 00:08:00;;;;;;;9.73;6.75;;;;;;;6.14;84.26;98841.72;5036708;28;20025;-74
2022/03/31 00:10:33;;;;;;;10.18;7.18;;;;;;;6.15;84.19;98837.31;5031561;28;20053;-74
2022/03/31 00:13:02;;;;;;;10.23;6.90;;;;;;;6.12;83.95;98841.06;5042744;28;20454;-74
2022/03/31 00:15:29;;;;;;;13.23;8.85;;;;;;;6.10;84.11;98831.72;5043750;28;20549;-74
2022/03/31 00:18:01;;;;;;;13.10;8.52;;;;;;;6.05;84.05;98832.19;5049250;28;20400;-74
2022/03/31 00:20:27;;;;;;;10.75;7.70;;;;;;;5.96;84.04;98822.72;5039469;28;20037;-74
2022/03/31 00:22:53;;;;;;;11.73;7.97;;;;;;;5.89;84.06;98829.56;5051596;28;20113;-74
2022/03/31 00:25:18;;;;;;;13.18;8.95;;;;;;;5.87;84.11;98823.66;5042842;28;20025;-74
2022/03/31 00:27:44;;;;;;;12.80;8.48;;;;;;;5.83;84.06;98820.53;5040923;28;20474;-74
2022/03/31 00:30:11;;;;;;;14.48;10.50;;;;;;;5.79;84.09;98823.66;5036584;28;20481;-74
2022/03/31 00:32:37;;;;;;;18.27;11.93;;;;;;;5.75;84.19;98816.13;5036940;28;20029;-74
2022/03/31 00:35:04;;;;;;;17.95;12.02;;;;;;;5.74;83.91;98817.09;5026055;28;20027;-74
2022/03/31 00:37:29;;;;;;;21.55;13.65;;;;;;;5.73;83.76;98812.81;5044594;28;20033;-74
2022/03/31 00:39:55;;;;;;;17.08;12.13;;;;;;;5.72;83.71;98807.72;5021015;28;20036;-74
2022/03/31 00:42:22;;;;;;;19.70;13.60;;;;;;;5.67;83.79;98815.28;5032664;28;20033;-74
2022/03/31 00:44:48;;;;;;;16.63;11.95;;;;;;;5.61;83.85;98814.13;5039369;28;20100;-74
2022/03/31 00:47:13;;;;;;;21.67;14.38;;;;;;;5.54;84.17;98816.56;5043567;28;20113;-74
2022/03/31 00:49:38;;;;;;;19.45;13.07;;;;;;;5.53;84.15;98822.00;5048564;28;20045;-74
2022/03/31 00:52:04;;;;;;;19.73;13.48;;;;;;;5.55;83.92;98820.00;5035802;28;20029;-74
2022/03/31 00:54:32;;;;;;;20.65;13.95;;;;;;;5.48;84.25;98813.78;5049334;28;20865;-74
2022/03/31 00:56:59;;;;;;;22.15;14.90;;;;;;;5.54;83.77;98813.13;5040814;28;20037;-74
2022/03/31 00:59:25;;;;;;;18.63;12.93;;;;;;;5.51;83.47;98808.22;5023757;28;20470;-74
2022/03/31 01:01:51;;;;;;;19.08;13.23;;;;;;;5.46;83.44;98811.34;5046471;28;20036;-74
2022/03/31 01:04:16;;;;;;;17.00;12.50;;;;;;;5.40;83.51;98806.72;5034892;28;20434;-74
2022/03/31 01:06:45;;;;;;;14.50;10.57;;;;;;;5.35;83.44;98806.38;5027256;28;20033;-75
2022/03/31 01:09:12;;;;;;;15.25;10.23;;;;;;;5.29;83.46;98800.00;5040445;28;20121;-75
2022/03/31 01:11:41;;;;;;;17.85;11.73;;;;;;;5.28;83.51;98795.72;5038231;28;20041;-75
2022/03/31 01:14:08;;;;;;;23.35;15.13;;;;;;;5.33;83.55;98796.06;5029655;28;20052;-75
2022/03/31 01:16:34;;;;;;;19.63;13.40;;;;;;;5.41;82.97;98789.19;5035099;28;20497;-75
2022/03/31 01:19:07;;;;;;;20.85;14.57;;;;;;;5.37;82.98;98780.03;5025546;28;20232;-74
2022/03/31 01:21:38;;;;;;;18.95;13.82;;;;;;;5.28;83.51;98772.13;5043335;28;20021;-75
2022/03/31 01:24:06;;;;;;;20.33;14.30;;;;;;;5.27;83.34;98778.38;5034385;28;20026;-75
2022/03/31 01:26:32;;;;;;;21.00;13.38;;;;;;;5.21;83.59;98757.22;5047219;28;20532;-75
2022/03/31 01:28:57;;;;;;;19.58;13.52;;;;;;;5.17;83.66;98764.56;5046107;28;20033;-74
2022/03/31 01:31:23;;;;;;;22.98;15.07;;;;;;;5.15;83.45;98766.56;5021770;28;20033;-75
2022/03/31 01:33:49;;;;;;;23.83;15.52;;;;;;;5.14;83.50;98769.31;5045463;28;20537;-74
2022/03/31 01:36:15;;;;;;;21.42;14.13;;;;;;;5.06;83.68;98757.03;5016488;28;20520;-74
2022/03/31 01:38:40;;;;;;;21.42;14.68;;;;;;;4.97;84.49;98763.22;5045932;28;20033;-74
2022/03/31 01:41:07;;;;;;;22.20;14.55;;;;;;;4.99;84.27;98767.31;5039545;28;20033;-74
2022/03/31 01:43:32;;;;;;;19.30;13.07;;;;;;;4.95;84.30;98757.31;5038357;28;20371;-75
2022/03/31 01:45:58;;;;;;;21.63;14.35;;;;;;;4.97;83.97;98757.97;5028567;28;20051;-75
2022/03/31 01:48:24;;;;;;;22.00;14.50;;;;;;;4.93;84.42;98761.88;5035707;28;20029;-75
2022/03/31 01:50:50;;;;;;;21.23;14.52;;;;;;;4.85;84.60;98747.78;5026538;28;20025;-74
2022/03/31 01:53:15;;;;;;;21.05;13.85;;;;;;;4.83;84.79;98762.84;5040145;28;20098;-74
2022/03/31 01:55:41;;;;;;;21.02;14.43;;;;;;;4.85;84.67;98754.84;5037119;28;20037;-75
2022/03/31 01:58:07;;;;;;;22.63;15.35;;;;;;;4.83;84.95;98748.94;5046195;28;20107;-74
2022/03/31 02:00:33;;;;;;;22.33;14.05;;;;;;;4.85;84.48;98753.03;5024905;28;20167;-74
2022/03/31 02:02:59;;;;;;;21.45;14.68;;;;;;;4.86;84.32;98752.06;5042830;28;20278;-74
2022/03/31 02:05:25;;;;;;;22.63;15.52;;;;;;;4.87;84.28;98745.84;5041570;28;20025;-74
2022/03/31 02:07:54;;;;;;;25.00;16.05;;;;;;;4.89;84.17;98749.13;5035768;28;20107;-75
2022/03/31 02:10:19;;;;;;;23.05;15.45;;;;;;;4.87;83.97;98737.97;5046459;28;20039;-75
2022/03/31 02:12:44;;;;;;;21.77;13.95;;;;;;;4.88;83.94;98733.56;5035328;28;20029;-75
2022/03/31 02:15:10;;;;;;;23.40;15.32;;;;;;;4.88;84.03;98734.38;5041089;28;20281;-74
2022/03/31 02:17:35;;;;;;;23.20;15.85;;;;;;;4.89;83.90;98736.03;5042535;28;20061;-75
2022/03/31 02:20:01;;;;;;;23.60;15.80;;;;;;;4.98;83.39;98729.03;5015954;28;20029;-74
2022/03/31 02:22:26;;;;;;;24.48;15.85;;;;;;;4.92;83.61;98724.41;5038838;28;20032;-75
2022/03/31 02:24:52;;;;;;;22.00;14.60;;;;;;;4.94;83.59;98727.69;5025022;28;20032;-74
2022/03/31 02:27:17;;;;;;;21.58;14.15;;;;;;;4.95;83.57;98718.03;5021746;28;20029;-74
2022/03/31 02:29:43;;;;;;;22.70;14.70;;;;;;;4.97;83.46;98727.38;5043226;28;20030;-75
2022/03/31 02:32:08;;;;;;;22.83;14.43;;;;;;;4.98;83.18;98721.16;5045412;28;20029;-75
2022/03/31 02:34:34;;;;;;;20.92;14.02;;;;;;;4.97;83.13;98729.16;5033694;28;20405;-75
2022/03/31 02:37:00;;;;;;;22.50;14.80;;;;;;;4.98;82.88;98729.03;5042003;28;20040;-75
2022/03/31 02:39:28;;;;;;;20.02;13.65;;;;;;;4.98;83.10;98729.03;5040932;28;20112;-75
2022/03/31 02:41:54;;;;;;;17.50;11.88;;;;;;;4.96;82.83;98728.34;5034905;28;20295;-75
2022/03/31 02:44:20;;;;;;;20.17;12.73;;;;;;;4.98;83.23;98723.78;5052691;28;20410;-74
2022/03/31 02:46:46;;;;;;;22.80;14.38;;;;;;;4.99;83.17;98720.16;5018641;28;20029;-74
2022/03/31 02:49:11;;;;;;;22.70;14.57;;;;;;;5.04;83.12;98730.16;5024622;28;20026;-75
2022/03/31 02:51:36;;;;;;;20.90;13.05;;;;;;;5.01;82.93;98718.22;5042624;28;20032;-75
2022/03/31 02:56:46;;;;;;;21.02;13.25;;;;;;;5.07;82.85;98714.13;5049635;28;20052;-75
2022/03/31 02:59:11;;;;;;;21.02;13.50;;;;;;;5.06;82.55;98715.13;5049796;28;20025;-75
2022/03/31 03:01:37;;;;;;;16.98;10.63;;;;;;;5.07;82.83;98708.88;5031143;28;20029;-75
2022/03/31 03:04:02;;;;;;;17.58;11.95;;;;;;;5.07;82.88;98701.03;5031195;28;20025;-75
2022/03/31 03:06:28;;;;;;;17.05;10.80;;;;;;;5.09;82.83;98704.31;5032463;28;20060;-74
2022/03/31 03:08:54;;;;;;;18.65;12.60;;;;;;;5.09;82.77;98699.88;5049989;28;20521;-75
2022/03/31 03:11:20;;;;;;;20.85;13.13;;;;;;;5.08;82.66;98707.91;5032254;28;20033;-75
2022/03/31 03:13:46;;;;;;;16.33;10.77;;;;;;;5.07;82.56;98701.84;5049531;28;20052;-75
2022/03/31 03:16:12;;;;;;;17.17;12.23;;;;;;;5.06;82.52;98700.22;5049985;28;20026;-75
2022/03/31 03:18:38;;;;;;;20.00;12.73;;;;;;;5.02;82.34;98698.06;5050062;28;20033;-75
2022/03/31 03:21:06;;;;;;;17.83;12.95;;;;;;;4.99;82.54;98696.59;5032018;28;20400;-75
2022/03/31 03:23:32;;;;;;;18.42;12.38;;;;;;;4.94;82.35;98700.69;5039419;28;20029;-75
2022/03/31 03:25:58;;;;;;;17.92;11.35;;;;;;;4.90;82.45;98700.16;5051377;28;20033;-75
2022/03/31 03:28:23;;;;;;;15.98;10.80;;;;;;;4.87;82.54;98695.25;5039484;28;20060;-75
2022/03/31 03:30:49;;;;;;;15.20;8.82;;;;;;;4.85;82.55;98691.97;5036284;28;20199;-75
2022/03/31 03:33:15;;;;;;;14.38;9.65;;;;;;;4.85;82.68;98690.19;5052733;28;20048;-75
2022/03/31 03:35:40;;;;;;;15.73;10.25;;;;;;;4.85;82.54;98686.75;5052931;28;20025;-75
2022/03/31 03:38:07;;;;;;;14.32;9.35;;;;;;;4.86;82.78;98691.84;5052147;28;20029;-75
2022/03/31 03:40:33;;;;;;;13.65;8.45;;;;;;;4.88;82.65;98689.03;5052508;28;20512;-75
2022/03/31 03:42:58;;;;;;;13.20;8.88;;;;;;;4.91;82.79;98693.97;5052559;28;20112;-75
2022/03/31 03:45:23;;;;;;;14.02;9.23;;;;;;;4.93;82.82;98680.69;5052967;28;20032;-75
2022/03/31 03:47:49;;;;;;;15.05;10.07;;;;;;;4.95;82.71;98671.69;5054421;28;20021;-75
2022/03/31 03:50:15;;;;;;;19.52;13.20;;;;;;;4.98;82.59;98667.94;5034289;28;20029;-75
2022/03/31 03:52:40;;;;;;;18.15;12.13;;;;;;;4.99;82.81;98661.72;5052547;28;20029;-75
2022/03/31 03:55:06;;;;;;;17.02;10.93;;;;;;;5.00;82.78;98661.56;5052268;28;20122;-74
2022/03/31 03:57:31;;;;;;;16.88;11.18;;;;;;;5.03;82.63;98668.25;5052409;28;20036;-75
2022/03/31 03:59:57;;;;;;;17.50;10.27;;;;;;;5.04;82.61;98667.28;5052127;28;20025;-75
2022/03/31 04:02:22;;;;;;;17.08;10.35;;;;;;;5.04;82.58;98665.50;5051742;28;20053;-75
2022/03/31 04:04:48;;;;;;;16.40;10.93;;;;;;;5.04;82.50;98664.69;5034477;28;20067;-75
2022/03/31 04:07:13;;;;;;;17.08;10.93;;;;;;;5.01;82.71;98662.38;5052345;28;20033;-75
2022/03/31 04:09:39;;;;;;;17.95;11.80;;;;;;;4.98;82.32;98655.69;5052131;28;20041;-74
2022/03/31 04:12:04;;;;;;;18.63;12.40;;;;;;;4.93;82.84;98646.66;5051929;28;20029;-75
2022/03/31 04:14:30;;;;;;;18.65;12.50;;;;;;;4.88;83.04;98647.13;5042041;28;20048;-75
2022/03/31 04:16:56;;;;;;;17.23;11.32;;;;;;;4.85;82.86;98648.28;5051318;28;20028;-75
2022/03/31 04:19:22;;;;;;;18.50;11.82;;;;;;;4.83;82.88;98647.63;5033699;28;20051;-75
2022/03/31 04:21:47;;;;;;;19.58;12.55;;;;;;;4.83;83.03;98654.66;5052786;28;20485;-75
2022/03/31 04:24:12;;;;;;;20.50;13.52;;;;;;;4.82;82.89;98651.22;5056625;28;20127;-74
2022/03/31 04:26:38;;;;;;;23.33;15.57;;;;;;;4.80;82.95;98642.72;5034317;28;20033;-75
2022/03/31 04:29:08;;;;;;;20.67;14.18;;;;;;;4.78;83.06;98643.84;5059863;28;20095;-75
2022/03/31 04:31:34;;;;;;;21.70;13.77;;;;;;;4.75;83.18;98639.75;5051999;28;20033;-74
2022/03/31 04:34:08;;;;;;;20.45;13.82;;;;;;;4.72;83.22;98637.47;5029006;28;20036;-75
2022/03/31 04:36:40;;;;;;;20.40;13.32;;;;;;;4.73;83.60;98640.91;5033589;28;20045;-74
2022/03/31 04:39:08;;;;;;;21.75;14.40;;;;;;;4.71;83.42;98637.63;5014616;28;20065;-75
2022/03/31 04:41:34;;;;;;;18.60;12.90;;;;;;;4.71;83.26;98641.06;5026420;28;20029;-74
2022/03/31 04:43:59;;;;;;;18.45;13.15;;;;;;;4.68;83.66;98636.97;5033852;28;20025;-75
2022/03/31 04:46:25;;;;;;;21.77;14.05;;;;;;;4.72;83.44;98632.22;5033388;28;20033;-74
2022/03/31 04:48:50;;;;;;;19.05;12.82;;;;;;;4.70;83.58;98641.22;5033473;28;20104;-74
2022/03/31 04:51:16;;;;;;;21.45;13.95;;;;;;;4.70;83.35;98649.09;5051665;28;20413;-75
2022/03/31 04:53:41;;;;;;;15.02;10.85;;;;;;;4.64;83.58;98643.47;5051588;28;20037;-75
2022/03/31 04:56:07;;;;;;;18.55;12.63;;;;;;;4.62;83.63;98647.25;5051015;28;20037;-74
2022/03/31 04:58:32;;;;;;;17.90;11.00;;;;;;;4.58;83.60;98648.56;5029538;28;20406;-74
2022/03/31 05:00:57;;;;;;;16.77;11.00;;;;;;;4.51;83.86;98645.75;5034239;28;20124;-73
2022/03/31 05:03:23;;;;;;;15.43;10.20;;;;;;;4.50;83.84;98651.13;5052498;28;20513;-73
2022/03/31 05:05:48;;;;;;;15.00;9.68;;;;;;;4.45;83.90;98652.44;5059119;28;20033;-73
2022/03/31 05:08:14;;;;;;;13.40;9.30;;;;;;;4.41;83.92;98653.75;5050320;28;20029;-73
2022/03/31 05:10:39;;;;;;;15.32;10.40;;;;;;;4.39;84.17;98655.69;5033354;28;20128;-73
2022/03/31 05:13:04;;;;;;;16.88;10.98;;;;;;;4.38;83.97;98654.03;5051059;28;20111;-73
2022/03/31 05:15:30;;;;;;;19.48;12.95;;;;;;;4.36;84.09;98649.94;5050025;28;20115;-73
2022/03/31 05:17:56;;;;;;;19.75;13.20;;;;;;;4.36;83.60;98655.19;5051280;28;20098;-74
2022/03/31 05:20:22;;;;;;;18.52;12.40;;;;;;;4.36;83.68;98653.41;5050922;28;20099;-74
2022/03/31 05:22:48;;;;;;;17.90;12.00;;;;;;;4.35;83.93;98664.00;5057715;28;20062;-74
2022/03/31 05:25:13;;;;;;;17.45;11.68;;;;;;;4.38;83.77;98661.06;5033273;28;20607;-74
2022/03/31 05:27:47;;;;;;;20.05;13.02;;;;;;;4.35;84.22;98653.56;5052561;28;20055;-74
2022/03/31 05:30:14;;;;;;;19.08;12.07;;;;;;;4.41;83.77;98653.75;5056388;28;20130;-74
2022/03/31 05:32:39;;;;;;;16.40;11.85;;;;;;;4.45;83.55;98649.00;5052219;28;20063;-73
2022/03/31 05:35:09;;;;;;;18.00;12.27;;;;;;;4.52;83.54;98649.19;5052560;28;20036;-73
2022/03/31 05:37:35;;;;;;;18.38;12.05;;;;;;;4.57;83.32;98652.16;5034716;28;20033;-74
2022/03/31 05:40:05;;;;;;;17.40;11.88;;;;;;;4.60;83.09;98649.19;5051977;28;20048;-74
2022/03/31 05:42:32;;;;;;;19.30;12.82;;;;;;;4.63;82.97;98652.31;5033978;28;20037;-73
2022/03/31 05:44:59;;;;;;;20.75;13.05;;;;;;;4.70;82.96;98647.28;5052363;28;20137;-74
2022/03/31 05:47:27;;;;;;;16.23;11.35;;;;;;;4.77;82.56;98647.47;5054338;28;20119;-73
2022/03/31 05:49:53;;;;;;;16.90;11.40;;;;;;;4.83;82.55;98647.63;5052059;28;20111;-74
2022/03/31 05:52:18;;;;;;;17.95;11.75;;;;;;;4.89;82.38;98649.59;5049241;28;20051;-74
2022/03/31 05:54:44;;;;;;;17.05;12.07;;;;;;;4.93;82.28;98657.13;5032971;28;20310;-74
2022/03/31 05:57:09;;;;;;;19.05;12.60;;;;;;;4.96;82.27;98656.78;5050598;28;20499;-73
2022/03/31 05:59:35;;;;;;;17.08;12.48;;;;;;;4.99;82.16;98648.63;5050215;28;20033;-74
2022/03/31 06:02:01;;;;;;;17.30;11.52;;;;;;;5.00;81.82;98658.13;5050514;28;20116;-74
2022/03/31 06:04:26;;;;;;;17.05;12.18;;;;;;;5.04;81.93;98659.44;5031685;28;20032;-73
2022/03/31 06:06:52;;;;;;;16.83;11.75;;;;;;;5.09;81.90;98655.34;5049851;28;20137;-74
2022/03/31 06:09:18;;;;;;;15.27;10.90;;;;;;;5.13;81.59;98655.03;5050005;28;20063;-74
2022/03/31 06:11:44;;;;;;;15.13;10.48;;;;;;;5.21;81.76;98655.84;5050196;28;20040;-74
2022/03/31 06:14:10;;;;;;;15.50;11.13;;;;;;;5.26;81.48;98657.97;5049599;28;20167;-74
2022/03/31 06:16:35;;;;;;;15.20;10.93;;;;;;;5.25;81.10;98654.53;5050127;28;20206;-74
2022/03/31 06:19:01;;;;;;;16.27;11.07;;;;;;;5.30;80.92;98657.47;5050056;28;20036;-74
2022/03/31 06:21:26;;;;;;;14.50;10.30;;;;;;;5.41;80.98;98666.00;5049897;28;20029;-74
2022/03/31 06:23:51;;;;;;;14.18;10.15;;;;;;;5.57;81.28;98665.16;5038076;28;20041;-74
2022/03/31 06:26:17;;;;;;;13.23;9.55;;;;;;;5.81;81.42;98662.50;5039367;28;20025;-74
2022/03/31 06:28:42;;;;;;;15.48;10.82;;;;;;;6.00;80.64;98658.72;5057371;28;20024;-74
2022/03/31 06:31:07;;;;;;;16.63;11.20;;;;;;;6.03;79.92;98657.56;5031906;28;20509;-74
2022/03/31 06:33:33;;;;;;;15.13;9.60;;;;;;;6.09;79.52;98651.66;5031599;28;20441;-74
2022/03/31 06:35:58;;;;;;;16.17;9.82;;;;;;;6.26;79.14;98655.03;5031928;28;20611;-74
2022/03/31 06:38:23;;;;;;;16.38;11.40;;;;;;;6.54;78.07;98653.59;5045672;28;20120;-74
2022/03/31 06:41:10;;;;;;;13.50;9.63;;;;;;;6.88;77.84;98649.78;5031534;28;20035;-75
2022/03/31 06:43:37;;;;;;;11.35;7.97;;;;;;;7.41;78.33;98653.34;5049337;28;20040;-75
2022/03/31 06:46:03;;;;;;;11.98;7.95;;;;;;;7.83;78.04;98649.31;5049670;28;20401;-75
2022/03/31 06:48:32;;;;;;;10.85;8.32;;;;;;;8.14;77.08;98652.78;5050347;28;20025;-75
2022/03/31 06:50:58;;;;;;;12.68;9.15;;;;;;;8.15;75.58;98649.16;5049616;28;20033;-75
2022/03/31 06:53:24;;;;;;;13.55;10.38;;;;;;;8.11;72.11;98656.59;5049311;28;20404;-75
2022/03/31 06:55:50;;;;;;;11.43;8.48;;;;;;;7.98;72.54;98648.50;5049752;28;20025;-75
2022/03/31 06:58:17;;;;;;;13.20;9.48;;;;;;;7.88;71.88;98652.22;5049150;28;20033;-74
2022/03/31 07:00:42;;;;;;;11.70;9.27;;;;;;;7.74;71.34;98633.81;5031800;28;20529;-75
2022/03/31 07:03:08;;;;;;;11.80;9.00;;;;;;;7.94;71.65;98644.63;5050219;28;20051;-74
2022/03/31 07:05:37;;;;;;;13.40;9.00;;;;;;;8.23;71.01;98649.88;5041391;28;20610;-74
2022/03/31 07:08:03;;;;;;;13.02;9.10;;;;;;;8.77;70.01;98650.53;5051995;28;20033;-75
2022/03/31 07:10:28;;;;;;;12.20;8.50;;;;;;;9.29;69.16;98658.16;5034144;28;20106;-75
2022/03/31 07:12:54;;;;;;;12.15;8.60;;;;;;;9.47;67.89;98656.91;5035286;28;20145;-75
2022/03/31 07:15:20;;;;;;;12.65;9.05;;;;;;;9.57;66.35;98660.00;5062385;28;20045;-75
2022/03/31 07:17:45;;;;;;;11.02;8.20;;;;;;;9.60;65.37;98650.91;5065296;28;20043;-75
2022/03/31 07:20:11;;;;;;;10.13;7.97;;;;;;;9.70;65.36;98654.00;5039006;28;20029;-75
2022/03/31 07:22:47;;;;;;;12.00;8.95;;;;;;;9.71;65.18;98648.53;5055336;28;20086;-75
2022/03/31 07:25:13;;;;;;;11.32;7.97;;;;;;;9.90;64.50;98647.06;5049239;28;20490;-75
2022/03/31 07:27:39;;;;;;;10.98;8.63;;;;;;;9.75;64.08;98649.00;5032440;28;20035;-75
2022/03/31 07:30:05;;;;;;;11.60;9.38;;;;;;;9.48;63.90;98648.78;5045747;28;20116;-75
2022/03/31 07:32:32;;;;;;;10.38;8.55;;;;;;;9.28;63.88;98659.16;5031012;28;20381;-75
2022/03/31 07:34:57;;;;;;;9.73;7.50;;;;;;;9.39;64.45;98649.94;5048112;28;20025;-75
2022/03/31 07:37:23;;;;;;;12.65;8.43;;;;;;;9.21;64.16;98641.66;5049079;28;20116;-75
2022/03/31 07:39:48;;;;;;;13.30;9.65;;;;;;;9.33;63.34;98645.41;5051369;28;20033;-75
2022/03/31 07:42:15;;;;;;;11.93;9.88;;;;;;;9.30;62.76;98648.44;5032727;28;20027;-74
2022/03/31 07:44:41;;;;;;;12.30;9.13;;;;;;;9.20;62.86;98642.66;5047220;28;20108;-74
2022/03/31 07:47:07;;;;;;;12.38;9.30;;;;;;;9.40;62.89;98641.00;5048929;28;20116;-74
2022/03/31 07:49:32;;;;;;;13.73;9.52;;;;;;;9.46;62.73;98639.41;5033312;28;20025;-74
2022/03/31 07:51:57;;;;;;;14.18;8.88;;;;;;;9.57;62.33;98638.91;5027291;28;20033;-74
2022/03/31 07:54:23;;;;;;;12.60;9.10;;;;;;;9.82;61.96;98633.19;5043570;28;20033;-74
2022/03/31 07:56:50;;;;;;;12.40;8.95;;;;;;;10.04;61.87;98641.88;5049878;28;20025;-75
2022/03/31 07:59:21;;;;;;;13.82;9.77;;;;;;;9.92;60.30;98642.41;5049099;28;20033;-75
2022/03/31 08:01:47;;;;;;;14.90;10.43;;;;;;;9.74;60.89;98642.06;5049171;28;20429;-75
2022/03/31 08:04:13;;;;;;;13.20;8.70;;;;;;;9.47;60.98;98641.88;5030317;28;20025;-75
2022/03/31 08:06:38;;;;;;;12.73;8.80;;;;;;;9.32;61.14;98635.88;5048819;28;20029;-75
2022/03/31 08:09:04;;;;;;;12.20;8.45;;;;;;;9.06;62.13;98637.25;5048741;28;20489;-74
2022/03/31 08:11:30;;;;;;;10.80;8.27;;;;;;;9.25;61.83;98635.00;5048385;28;20060;-74
2022/03/31 08:13:56;;;;;;;11.95;8.90;;;;;;;9.27;62.08;98630.34;5048066;28;20037;-74
2022/03/31 08:16:22;;;;;;;11.52;8.73;;;;;;;9.25;62.15;98624.47;5052331;28;20111;-74
2022/03/31 08:18:47;;;;;;;11.45;8.77;;;;;;;9.35;62.26;98627.56;5036443;28;20021;-74
2022/03/31 08:21:13;;;;;;;9.73;7.22;;;;;;;9.63;61.87;98626.75;5057772;28;20401;-74
2022/03/31 08:23:38;;;;;;;12.95;8.65;;;;;;;9.83;61.15;98622.44;5048989;28;20088;-74
2022/03/31 08:26:03;;;;;;;11.75;8.50;;;;;;;9.72;61.00;98625.59;5032061;28;20030;-74
2022/03/31 08:28:31;;;;;;;8.40;6.82;;;;;;;9.85;61.50;98630.16;5039431;28;20082;-74
2022/03/31 08:30:57;;;;;;;10.90;8.40;;;;;;;10.23;60.75;98627.13;5033824;28;20063;-74
2022/03/31 08:33:22;;;;;;;11.27;8.13;;;;;;;10.43;60.71;98629.88;5052020;28;20146;-74
2022/03/31 08:35:47;;;;;;;11.07;8.68;;;;;;;10.29;59.86;98632.44;5033825;28;20039;-74
2022/03/31 08:38:13;;;;;;;12.02;8.80;;;;;;;9.95;60.26;98633.28;5033462;28;20209;-74
2022/03/31 08:40:38;;;;;;;12.85;9.07;;;;;;;9.87;60.30;98636.06;5051736;28;20044;-74
2022/03/31 08:43:04;;;;;;;15.20;10.35;;;;;;;9.62;60.56;98640.97;5052050;28;20547;-74
2022/03/31 08:45:34;;;;;;;11.63;8.73;;;;;;;9.48;60.78;98638.22;5051207;28;20029;-74
2022/03/31 08:48:01;;;;;;;14.43;10.40;;;;;;;9.21;61.62;98642.47;5032421;28;20450;-74
2022/03/31 08:50:27;;;;;;;12.25;8.73;;;;;;;9.23;62.05;98632.56;5033310;28;20029;-74
2022/03/31 08:52:53;;;;;;;11.95;8.63;;;;;;;9.22;61.85;98638.81;5051102;28;20073;-74
2022/03/31 08:55:19;;;;;;;12.32;9.15;;;;;;;9.24;61.76;98642.06;5033837;28;20029;-74
2022/03/31 08:57:48;;;;;;;12.95;9.38;;;;;;;9.30;61.75;98640.53;5051188;28;20374;-74
2022/03/31 09:00:16;;;;;;;12.35;9.32;;;;;;;9.21;61.85;98636.38;5052949;28;20022;-74
2022/03/31 09:03:01;;;;;;;10.30;7.85;;;;;;;9.17;62.39;98638.56;5029910;28;20029;-74
2022/03/31 09:05:34;;;;;;;13.95;9.50;;;;;;;9.21;62.17;98636.38;5030322;28;20056;-74
2022/03/31 09:08:02;;;;;;;11.68;8.68;;;;;;;9.15;62.51;98630.03;5025976;28;20025;-74
2022/03/31 09:10:31;;;;;;;13.25;10.27;;;;;;;9.00;62.58;98630.09;5037690;28;20038;-74
2022/03/31 09:12:58;;;;;;;12.02;9.05;;;;;;;9.14;62.68;98626.56;5030686;28;20036;-74
2022/03/31 09:15:24;;;;;;;16.95;10.30;;;;;;;9.11;62.34;98631.44;5022502;28;20033;-74
2022/03/31 09:17:57;;;;;;;12.32;9.25;;;;;;;9.18;62.45;98626.22;5045877;28;20035;-74
2022/03/31 09:20:34;;;;;;;11.32;8.68;;;;;;;9.41;62.49;98623.34;5034559;28;20029;-74
2022/03/31 09:22:59;;;;;;;9.93;7.25;;;;;;;9.78;61.75;98636.22;5024612;28;20117;-74
2022/03/31 09:25:26;;;;;;;11.90;9.05;;;;;;;9.88;60.96;98622.66;5023975;28;20121;-74
2022/03/31 09:27:52;;;;;;;12.68;8.82;;;;;;;10.07;61.22;98622.97;5038058;28;20039;-74
2022/03/31 09:30:18;;;;;;;11.80;9.27;;;;;;;10.16;60.72;98625.25;5052318;28;20513;-74
2022/03/31 09:32:51;;;;;;;12.63;8.93;;;;;;;10.39;60.15;98618.88;5036492;28;20025;-74
2022/03/31 09:35:23;;;;;;;12.65;8.23;;;;;;;10.52;59.47;98618.94;5040936;28;20041;-74
2022/03/31 09:37:51;;;;;;;14.13;10.27;;;;;;;10.51;59.05;98617.31;5045390;28;20033;-75
2022/03/31 09:40:18;;;;;;;11.07;8.07;;;;;;;10.67;59.76;98610.03;5034101;28;20508;-74
2022/03/31 09:42:54;;;;;;;11.77;8.80;;;;;;;10.76;59.81;98614.13;5045298;28;20037;-75
2022/03/31 09:45:20;;;;;;;9.75;7.75;;;;;;;10.80;59.58;98612.72;5041381;28;20080;-75
2022/03/31 09:47:50;;;;;;;12.23;8.57;;;;;;;10.68;59.30;98611.66;5038686;28;20069;-74
2022/03/31 09:50:16;;;;;;;16.73;10.90;;;;;;;10.40;58.80;98617.88;5046981;28;20043;-74
2022/03/31 09:52:43;;;;;;;13.70;10.65;;;;;;;10.31;59.87;98614.59;5035616;28;20029;-74
2022/03/31 09:55:10;;;;;;;13.35;10.32;;;;;;;10.22;59.52;98613.09;5023991;28;20030;-74
2022/03/31 09:57:39;;;;;;;10.23;8.10;;;;;;;10.25;59.69;98603.94;5025393;28;20033;-74
2022/03/31 10:00:06;;;;;;;13.45;9.45;;;;;;;10.12;59.45;98607.34;5015885;28;20460;-74
2022/03/31 10:02:35;;;;;;;11.00;8.15;;;;;;;10.36;59.21;98593.66;5028637;28;20032;-75
2022/03/31 10:05:00;;;;;;;11.77;9.00;;;;;;;10.74;57.98;98598.44;5020608;28;20544;-74
2022/03/31 10:07:28;;;;;;;13.02;9.55;;;;;;;10.65;57.80;98598.84;5039712;28;20037;-74
2022/03/31 10:09:53;;;;;;;14.45;10.13;;;;;;;10.58;58.52;98597.00;5038706;28;20032;-74
2022/03/31 10:12:32;;;;;;;13.10;10.32;;;;;;;10.80;58.30;98597.66;5044236;28;20277;-74
2022/03/31 10:15:11;;;;;;;11.88;8.70;;;;;;;11.05;58.46;98597.06;5035466;28;20041;-74
2022/03/31 10:17:37;;;;;;;10.02;7.45;;;;;;;11.49;57.34;98593.03;5043929;28;20032;-75
2022/03/31 10:20:13;;;;;;;11.25;8.25;;;;;;;11.68;57.79;98589.53;5015830;28;20040;-75
2022/03/31 10:25:37;;;;;;;9.65;7.55;;;;;;;12.46;56.50;98577.25;5063726;28;20119;-75
2022/03/31 10:28:09;;;;;;;11.85;8.00;;;;;;;12.64;55.71;98581.88;5036527;28;20032;-75
2022/03/31 10:30:35;;;;;;;13.38;9.20;;;;;;;12.72;54.07;98578.97;5067145;28;20025;-75
2022/03/31 10:33:04;;;;;;;12.73;9.32;;;;;;;12.77;54.19;98570.38;5058896;28;20036;-75
2022/03/31 10:35:32;;;;;;;11.73;8.77;;;;;;;12.83;53.91;98565.03;5041135;28;20029;-74
2022/03/31 10:38:10;;;;;;;10.90;8.73;;;;;;;12.87;53.75;98563.56;5065789;28;20146;-75
2022/03/31 10:40:42;;;;;;;9.35;7.88;;;;;;;13.23;53.70;98561.25;5065261;28;20063;-75
2022/03/31 10:43:27;;;;;;;10.73;8.32;;;;;;;13.35;53.63;98556.91;5058959;28;20039;-75
2022/03/31 10:45:54;;;;;;;11.30;8.77;;;;;;;13.62;52.13;98559.31;5054782;28;20029;-75
2022/03/31 10:48:27;;;;;;;10.23;7.80;;;;;;;14.14;52.01;98557.09;5045500;28;20028;-75
2022/03/31 10:51:06;;;;;;;9.07;7.07;;;;;;;15.34;49.82;98558.84;5028011;28;20050;-75
2022/03/31 10:53:34;;;;;;;11.13;9.45;;;;;;;14.81;48.88;98547.19;5028616;28;20033;-75
2022/03/31 10:56:02;;;;;;;10.02;7.68;;;;;;;14.61;50.33;98552.81;5041988;28;20025;-75
2022/03/31 10:58:30;;;;;;;10.80;8.27;;;;;;;14.29;49.62;98552.19;5047880;28;20032;-75
2022/03/31 11:00:57;;;;;;;9.90;7.05;;;;;;;13.83;50.95;98558.06;5048404;28;20029;-75
2022/03/31 11:03:23;;;;;;;10.13;7.68;;;;;;;13.38;50.47;98553.81;5048111;28;20127;-75
2022/03/31 11:05:49;;;;;;;10.77;8.27;;;;;;;12.94;51.72;98559.03;5049745;28;20140;-75
2022/03/31 11:08:18;;;;;;;9.25;7.55;;;;;;;12.71;52.55;98543.69;5049302;28;20056;-75
2022/03/31 11:10:46;;;;;;;9.30;6.60;;;;;;;12.66;52.85;98545.34;5049641;28;20029;-74
2022/03/31 11:13:13;;;;;;;11.55;8.60;;;;;;;12.50;52.60;98539.53;5049390;28;20041;-74
2022/03/31 11:15:39;;;;;;;10.93;7.93;;;;;;;12.02;53.59;98536.50;5048234;28;20064;-74
2022/03/31 11:18:05;;;;;;;11.13;8.10;;;;;;;11.91;54.34;98532.66;5050235;28;20120;-74
2022/03/31 11:20:31;;;;;;;9.35;7.10;;;;;;;11.86;54.32;98529.81;5042895;28;20108;-74
2022/03/31 11:23:00;;;;;;;9.93;7.50;;;;;;;11.76;54.24;98527.59;5060984;28;20477;-74
2022/03/31 11:25:26;;;;;;;9.93;6.97;;;;;;;11.68;54.65;98520.69;5048111;28;20029;-74
2022/03/31 11:27:52;;;;;;;10.88;8.23;;;;;;;11.49;55.62;98532.16;5049637;28;20387;-74
2022/03/31 11:30:22;;;;;;;10.23;7.53;;;;;;;11.52;55.57;98522.97;5049392;28;20028;-74